Archival Weather

General Ignacio P Garcia Intl

General Ignacio P Garcia Intl, Mexico (MMHO)

Report from: Wednesday, December 6, 2023 6:40 PM CST
Current time: Tuesday, May 21, 2024 11:30 AM CST

Current weather – Weather history – Daily summaries
Weather forecast

Temperature26.0°C (78.8°F)
Dew point-4.0°C (24.8°F)
Winds 4 kts (2.1 m/s, 4.6 mph) South-Southwest (210°)
Visibility10 mi. (16.1 km)
Clouds Sky clear
Altimeter29.99 in.Hg (1016 mB)
Relative humidity14 %
Density altitude1,271 ft. (387 m)
Flight conditions Visual Meteorological Conditions
Raw dataMMHO 070040Z 21004KT 10SM SKC 26/M04 A2999 RMK ISOL CI HZY
An error has occurred. This application may no longer respond until reloaded. Reload 🗙